Time;durP1;ratioP1;P1;durP2;ratioP2;P2;SDS_P1;SDS_P2;PMS_P1;PMS_P2;Temp;Humidity;BMP_temperature;BMP_pressure;BME280_temperature;BME280_humidity;BME280_pressure;Samples;Min_cycle;Max_cycle;Signal;HPM_P1;HPM_P2
2022/07/18 00:01:51;;;;;;;5.97;1.83;;;;;;;13.79;74.70;101886.94;6022849;28;20402;-65
2022/07/18 00:04:47;;;;;;;3.35;1.33;;;;;;;13.57;75.62;101896.00;6019762;28;20058;-67
2022/07/18 00:07:42;;;;;;;3.90;1.80;;;;;;;13.42;76.95;101889.38;6020429;28;20038;-65
2022/07/18 00:10:37;;;;;;;3.23;1.70;;;;;;;13.31;77.87;101900.16;6022218;28;20074;-64
2022/07/18 00:13:33;;;;;;;5.47;2.10;;;;;;;13.46;76.73;101880.13;6019192;28;20180;-65
2022/07/18 00:16:28;;;;;;;4.83;2.57;;;;;;;13.40;76.70;101902.00;6023997;28;20324;-65
2022/07/18 00:19:24;;;;;;;4.15;1.60;;;;;;;13.16;77.62;101898.81;6024365;28;20055;-67
2022/07/18 00:22:19;;;;;;;5.15;1.80;;;;;;;12.98;79.04;101903.88;6020227;28;20121;-66
2022/07/18 00:25:15;;;;;;;3.27;1.60;;;;;;;12.89;79.51;101896.69;6018173;28;20475;-66
2022/07/18 00:28:11;;;;;;;6.93;2.00;;;;;;;13.38;77.57;101903.94;6020685;28;20038;-67
2022/07/18 00:31:07;;;;;;;3.80;1.50;;;;;;;13.38;77.44;101898.63;6013209;28;20022;-65
2022/07/18 00:34:02;;;;;;;3.67;1.70;;;;;;;14.19;77.71;101899.19;6025005;28;20517;-66
2022/07/18 00:36:58;;;;;;;5.60;1.90;;;;;;;13.92;75.28;101887.50;6023552;28;20483;-65
2022/07/18 00:39:54;;;;;;;3.55;1.45;;;;;;;13.71;76.38;101898.28;6014527;28;20046;-64
2022/07/18 00:42:49;;;;;;;4.43;2.00;;;;;;;13.69;76.03;101889.59;6018472;28;20050;-68
2022/07/18 00:45:46;;;;;;;3.03;1.50;;;;;;;13.37;77.35;101903.09;6018803;28;20034;-65
2022/07/18 00:48:42;;;;;;;5.10;2.10;;;;;;;13.39;77.99;101889.66;6014948;28;20047;-64
2022/07/18 00:51:38;;;;;;;4.63;1.98;;;;;;;13.35;76.85;101880.22;6014322;28;20542;-65
2022/07/18 00:54:33;;;;;;;5.20;1.55;;;;;;;13.03;78.49;101896.34;6022727;28;20042;-68
2022/07/18 00:57:28;;;;;;;5.87;1.70;;;;;;;12.83;79.60;101903.38;6008975;28;20467;-63
2022/07/18 01:03:38;;;;;;;4.38;2.10;;;;;;;13.08;79.81;101905.66;6025037;28;20042;-65
2022/07/18 01:06:33;;;;;;;6.00;2.03;;;;;;;13.37;79.85;101896.94;6017020;28;20482;-65
2022/07/18 01:09:28;;;;;;;4.50;1.70;;;;;;;13.41;77.69;101877.88;6023124;28;20034;-67
2022/07/18 01:12:25;;;;;;;5.57;1.80;;;;;;;13.50;78.44;101884.22;6020563;28;20034;-67
2022/07/18 01:15:20;;;;;;;5.45;1.70;;;;;;;13.92;78.61;101879.50;6019151;28;20041;-65
2022/07/18 01:18:16;;;;;;;4.20;2.10;;;;;;;13.66;76.48;101876.53;6017963;28;20042;-63
2022/07/18 01:21:12;;;;;;;5.22;1.73;;;;;;;14.00;77.89;101883.16;6021216;28;20152;-65
2022/07/18 01:24:07;;;;;;;6.47;1.83;;;;;;;14.32;76.46;101875.75;6024926;28;20043;-63
2022/07/18 01:27:03;;;;;;;6.20;1.63;;;;;;;14.00;75.02;101880.50;6016154;28;20058;-64
2022/07/18 01:29:58;;;;;;;5.88;1.95;;;;;;;13.69;75.85;101870.94;6018838;28;20027;-63
2022/07/18 01:33:01;;;;;;;3.87;1.73;;;;;;;13.45;77.00;101873.13;6027079;28;20034;-64
2022/07/18 01:36:00;;;;;;;5.72;1.70;;;;;;;13.45;76.62;101873.13;6016853;28;20034;-63
2022/07/18 01:38:55;;;;;;;4.60;1.90;;;;;;;13.43;77.43;101869.72;6017797;28;20061;-65
2022/07/18 01:41:58;;;;;;;7.50;1.90;;;;;;;13.53;77.17;101887.44;6016715;28;20043;-63
2022/07/18 01:44:53;;;;;;;6.32;1.70;;;;;;;13.18;77.31;101878.22;6021331;28;20593;-66
2022/07/18 01:47:48;;;;;;;5.27;1.70;;;;;;;13.46;77.64;101885.47;6016082;28;20039;-63
2022/07/18 01:50:44;;;;;;;5.70;1.97;;;;;;;13.46;78.22;101872.13;6015495;28;20352;-64
2022/07/18 01:53:40;;;;;;;3.63;1.53;;;;;;;13.68;78.21;101874.56;6026636;28;20125;-65
2022/07/18 01:56:35;;;;;;;2.97;1.73;;;;;;;13.56;77.56;101886.34;6008568;28;20286;-64
2022/07/18 01:59:30;;;;;;;3.93;1.57;;;;;;;13.41;77.57;101866.38;6022067;28;20038;-65
2022/07/18 02:02:26;;;;;;;4.20;1.73;;;;;;;13.29;78.34;101878.13;6022486;28;20497;-64
2022/07/18 02:05:21;;;;;;;4.53;1.70;;;;;;;13.29;78.74;101870.97;6026092;28;20042;-65
2022/07/18 02:08:16;;;;;;;4.90;1.80;;;;;;;13.18;79.11;101867.56;6025965;28;20085;-65
2022/07/18 02:11:12;;;;;;;4.90;1.70;;;;;;;13.85;79.08;101873.06;6019253;28;20284;-65
2022/07/18 02:14:07;;;;;;;4.47;2.00;;;;;;;14.00;78.50;101867.16;6022530;28;20038;-64
2022/07/18 02:17:02;;;;;;;3.77;2.00;;;;;;;13.99;77.21;101870.84;6026092;28;20037;-63
2022/07/18 02:19:58;;;;;;;3.47;1.50;;;;;;;14.36;78.12;101864.81;6016839;28;20045;-64
2022/07/18 02:22:53;;;;;;;4.30;1.83;;;;;;;14.38;76.15;101852.19;6023831;28;20027;-64
2022/07/18 02:25:48;;;;;;;2.47;1.57;;;;;;;14.31;75.63;101841.19;6020097;28;20068;-63
2022/07/18 02:28:44;;;;;;;3.63;2.03;;;;;;;13.99;75.56;101852.16;6026850;28;20282;-67
2022/07/18 02:31:39;;;;;;;3.50;1.47;;;;;;;13.92;77.16;101848.34;6023537;28;20034;-67
2022/07/18 02:34:34;;;;;;;3.88;1.85;;;;;;;14.04;77.58;101849.91;6025676;28;20030;-65
2022/07/18 02:37:30;;;;;;;9.77;2.05;;;;;;;14.30;76.14;101852.84;6017030;28;20038;-67
2022/07/18 02:40:25;;;;;;;3.63;1.67;;;;;;;14.25;76.13;101845.28;6027115;28;20470;-65
2022/07/18 02:43:20;;;;;;;4.67;1.77;;;;;;;13.98;75.01;101839.81;6022889;28;20042;-66
2022/07/18 02:46:16;;;;;;;3.53;1.63;;;;;;;13.89;74.79;101840.63;6020965;28;20019;-66
2022/07/18 02:49:26;;;;;;;4.83;1.57;;;;;;;13.91;74.61;101838.69;6013831;28;20038;-65
2022/07/18 02:52:21;;;;;;;8.73;2.10;;;;;;;13.77;75.63;101848.91;6024986;28;20074;-65
2022/07/18 02:55:17;;;;;;;3.37;1.53;;;;;;;13.87;74.09;101842.59;6027195;28;20109;-67
2022/07/18 02:58:12;;;;;;;5.60;1.97;;;;;;;13.82;75.55;101834.19;6016073;28;20030;-66
2022/07/18 03:01:07;;;;;;;4.87;1.90;;;;;;;13.90;76.47;101830.81;6022818;28;20309;-65
2022/07/18 03:04:02;;;;;;;6.70;1.93;;;;;;;13.98;74.47;101855.81;6019419;28;20042;-66
2022/07/18 03:06:58;;;;;;;4.67;2.07;;;;;;;13.57;75.06;101845.38;6025794;28;20060;-67
2022/07/18 03:09:53;;;;;;;5.07;2.50;;;;;;;13.24;76.10;101851.03;6023549;28;20281;-64
2022/07/18 03:12:48;;;;;;;4.87;1.97;;;;;;;13.11;76.31;101848.59;6026534;28;20058;-67
2022/07/18 03:15:44;;;;;;;6.27;1.90;;;;;;;12.97;76.68;101840.94;6025611;28;20351;-65
2022/07/18 03:18:39;;;;;;;3.93;2.30;;;;;;;13.13;75.76;101831.50;6016354;28;20045;-65
2022/07/18 03:21:34;;;;;;;6.27;2.23;;;;;;;12.91;76.36;101831.66;6024485;28;20394;-67
2022/07/18 03:24:30;;;;;;;4.30;1.73;;;;;;;12.75;77.33;101835.78;6026084;28;20074;-65
2022/07/18 03:27:25;;;;;;;4.88;1.70;;;;;;;12.95;76.75;101827.78;6008541;28;20025;-66
2022/07/18 03:30:20;;;;;;;6.40;2.00;;;;;;;13.27;75.41;101848.09;6020955;28;20042;-66
2022/07/18 03:33:16;;;;;;;5.93;1.80;;;;;;;13.16;75.90;101845.53;6023181;28;20041;-67
2022/07/18 03:36:11;;;;;;;5.87;2.00;;;;;;;13.10;75.70;101847.75;6009477;28;20278;-66
2022/07/18 03:39:08;;;;;;;4.18;1.90;;;;;;;13.13;75.57;101847.50;6025943;28;20050;-66
2022/07/18 03:42:04;;;;;;;3.85;1.75;;;;;;;13.20;75.22;101850.47;6019080;28;20034;-67
2022/07/18 03:44:59;;;;;;;5.80;1.87;;;;;;;13.21;75.22;101843.34;6019283;28;20395;-65
2022/07/18 03:47:55;;;;;;;4.13;1.80;;;;;;;13.38;75.11;101850.66;6021106;28;20049;-65
2022/07/18 03:50:50;;;;;;;5.10;1.70;;;;;;;13.34;74.81;101838.59;6021222;28;20031;-66
2022/07/18 03:53:45;;;;;;;3.87;1.47;;;;;;;13.54;73.95;101845.66;6017434;28;20057;-64
2022/07/18 03:56:41;;;;;;;10.83;1.90;;;;;;;13.29;74.08;101838.16;6016901;28;20037;-64
2022/07/18 03:59:36;;;;;;;4.57;1.43;;;;;;;13.09;74.86;101838.09;6019605;28;20266;-65
2022/07/18 04:02:31;;;;;;;4.37;1.90;;;;;;;12.91;75.66;101831.66;6017362;28;20034;-65
2022/07/18 04:05:27;;;;;;;4.00;2.17;;;;;;;12.88;75.77;101825.78;6023826;28;20320;-67
2022/07/18 04:08:22;;;;;;;8.57;2.40;;;;;;;12.86;76.21;101833.03;6013047;28;20049;-67
2022/07/18 04:11:19;;;;;;;4.80;2.00;;;;;;;12.92;75.28;101836.03;6022656;28;20042;-65
2022/07/18 04:14:15;;;;;;;4.07;1.92;;;;;;;12.92;75.88;101828.03;6017240;28;20037;-65
2022/07/18 04:17:10;;;;;;;4.47;1.60;;;;;;;13.34;74.71;101823.47;6026005;28;20382;-65
2022/07/18 04:20:06;;;;;;;3.87;1.60;;;;;;;13.80;72.90;101835.31;6024281;28;20121;-67
2022/07/18 04:23:04;;;;;;;4.57;1.90;;;;;;;13.83;72.21;101835.88;6025158;28;20027;-66
2022/07/18 04:25:59;;;;;;;7.03;2.25;;;;;;;13.88;72.42;101836.31;6017018;28;20034;-66
2022/07/18 04:28:54;;;;;;;5.47;2.20;;;;;;;14.03;71.35;101832.22;6025631;28;20034;-67
2022/07/18 04:31:50;;;;;;;9.30;2.40;;;;;;;14.06;71.70;101831.94;6021795;28;20292;-65
2022/07/18 04:34:45;;;;;;;5.03;2.00;;;;;;;14.49;70.15;101834.16;6023762;28;20410;-65
2022/07/18 04:37:40;;;;;;;4.90;1.70;;;;;;;14.74;68.63;101816.66;6024184;28;20034;-64
2022/07/18 04:40:36;;;;;;;7.05;2.30;;;;;;;14.11;70.68;101827.03;6024493;28;20049;-65
2022/07/18 04:43:32;;;;;;;4.88;2.17;;;;;;;14.71;68.50;101816.97;6016508;28;20106;-67
2022/07/18 04:46:27;;;;;;;4.15;1.90;;;;;;;14.54;69.02;101793.72;6023383;28;20093;-64
2022/07/18 04:49:24;;;;;;;5.03;1.80;;;;;;;14.84;67.29;101806.78;6015955;28;20042;-65
2022/07/18 04:52:20;;;;;;;4.07;2.13;;;;;;;14.83;67.35;101797.09;6019136;28;20097;-65
2022/07/18 04:55:17;;;;;;;8.18;2.50;;;;;;;15.57;65.61;101802.34;6025351;28;20065;-67
2022/07/18 04:58:12;;;;;;;5.00;2.58;;;;;;;15.55;64.20;101799.81;6016209;28;20038;-67
2022/07/18 05:01:08;;;;;;;8.30;2.53;;;;;;;15.28;64.71;101816.69;6025721;28;20046;-66
2022/07/18 05:04:03;;;;;;;5.57;2.47;;;;;;;15.14;65.65;101806.50;6029517;28;20038;-64
2022/07/18 05:06:59;;;;;;;7.43;2.30;;;;;;;15.01;66.56;101813.19;6025596;28;20762;-67
2022/07/18 05:09:54;;;;;;;6.47;2.63;;;;;;;14.77;67.57;101811.88;6029915;28;20038;-66
2022/07/18 05:12:52;;;;;;;11.73;3.75;;;;;;;14.58;68.51;101806.59;6023928;28;20041;-65
2022/07/18 05:15:47;;;;;;;7.40;2.72;;;;;;;14.69;69.06;101805.59;6018172;28;20030;-66
2022/07/18 05:18:42;;;;;;;6.57;2.20;;;;;;;15.35;67.28;101812.47;6016752;28;20030;-66
2022/07/18 05:21:38;;;;;;;5.73;2.60;;;;;;;15.97;64.62;101821.47;6022790;28;20049;-64
2022/07/18 05:24:33;;;;;;;5.38;2.38;;;;;;;16.30;63.19;101818.06;6028622;28;20423;-65
2022/07/18 05:27:28;;;;;;;8.00;2.60;;;;;;;16.12;63.22;101801.19;6033174;28;20046;-66
2022/07/18 05:30:24;;;;;;;8.48;2.70;;;;;;;16.26;62.39;101800.63;6033063;28;20124;-64
2022/07/18 05:33:20;;;;;;;7.88;2.72;;;;;;;17.01;61.04;101805.28;6008928;28;20030;-64
2022/07/18 05:36:15;;;;;;;7.53;3.10;;;;;;;17.42;58.80;101803.56;6023875;28;20042;-65
2022/07/18 05:39:10;;;;;;;8.70;2.77;;;;;;;17.50;59.54;101792.03;6021740;28;20088;-67
2022/07/18 05:42:06;;;;;;;7.57;2.50;;;;;;;17.55;58.74;101787.06;6028464;28;20745;-64
2022/07/18 05:45:02;;;;;;;7.63;2.53;;;;;;;17.68;57.61;101800.81;6018930;28;20092;-66
2022/07/18 05:47:57;;;;;;;6.32;2.22;;;;;;;18.00;56.96;101789.25;6027939;28;20049;-65
2022/07/18 05:50:52;;;;;;;7.37;2.17;;;;;;;17.99;55.63;101803.72;6027038;28;20041;-67
2022/07/18 05:53:48;;;;;;;5.53;2.13;;;;;;;18.42;54.11;101792.59;6019224;28;20058;-67
2022/07/18 05:56:49;;;;;;;7.15;2.00;;;;;;;18.16;54.75;101797.31;6017804;28;20301;-64
2022/07/18 05:59:44;;;;;;;4.57;2.00;;;;;;;18.45;52.40;101792.25;6019990;28;20125;-66
2022/07/18 06:02:39;;;;;;;4.77;1.70;;;;;;;19.03;51.15;101795.47;6019037;28;20393;-66
2022/07/18 06:05:35;;;;;;;6.47;1.90;;;;;;;19.44;50.56;101806.03;6017600;28;20039;-64
2022/07/18 06:08:30;;;;;;;5.82;2.30;;;;;;;20.23;48.60;101805.63;6019717;28;20058;-65
2022/07/18 06:11:25;;;;;;;7.63;2.13;;;;;;;19.65;50.25;101791.97;6019266;28;20034;-65
2022/07/18 06:14:21;;;;;;;3.83;1.77;;;;;;;20.74;47.71;101791.31;6017103;28;20419;-64
2022/07/18 06:17:16;;;;;;;4.47;1.87;;;;;;;20.40;47.64;101793.72;6019086;28;20038;-66
2022/07/18 06:20:11;;;;;;;3.10;1.87;;;;;;;20.50;47.27;101791.59;6016805;28;20042;-66
2022/07/18 06:23:07;;;;;;;4.57;1.95;;;;;;;19.97;48.23;101780.97;6022944;28;20088;-65
2022/07/18 06:26:02;;;;;;;4.77;1.70;;;;;;;20.09;48.74;101788.41;6027138;28;20093;-65
2022/07/18 06:28:58;;;;;;;7.18;2.10;;;;;;;19.83;49.54;101777.19;6028240;28;20273;-65
2022/07/18 06:31:53;;;;;;;6.80;2.33;;;;;;;19.88;49.46;101777.50;6025303;28;20559;-66
2022/07/18 06:34:48;;;;;;;6.93;2.17;;;;;;;19.90;49.60;101774.59;6025155;28;20042;-65
2022/07/18 06:37:44;;;;;;;4.90;2.00;;;;;;;19.67;49.45;101763.88;6027520;28;20031;-65
2022/07/18 06:40:40;;;;;;;6.82;1.92;;;;;;;19.85;48.54;101769.78;6026766;28;20065;-64
2022/07/18 06:43:38;;;;;;;7.57;2.03;;;;;;;20.00;48.43;101770.63;6027544;28;20038;-65
2022/07/18 06:46:33;;;;;;;4.50;1.98;;;;;;;20.38;48.08;101765.28;6019741;28;20034;-66
2022/07/18 06:49:29;;;;;;;4.35;2.05;;;;;;;20.38;48.69;101773.38;6026490;28;20030;-66
2022/07/18 06:52:24;;;;;;;10.67;2.63;;;;;;;21.12;47.45;101757.00;6023466;28;20034;-64
2022/07/18 06:55:19;;;;;;;8.57;2.20;;;;;;;21.11;46.64;101771.53;6026846;28;20265;-66
2022/07/18 06:58:15;;;;;;;9.18;2.30;;;;;;;20.59;47.65;101777.00;6026172;28;20092;-65
2022/07/18 07:01:10;;;;;;;10.23;2.40;;;;;;;21.18;46.46;101764.34;6025298;28;20030;-66
2022/07/18 07:04:05;;;;;;;11.67;3.10;;;;;;;21.26;46.14;101769.63;6025468;28;20026;-66
2022/07/18 07:07:01;;;;;;;8.87;3.00;;;;;;;21.10;47.63;101769.00;6019767;28;20541;-64
2022/07/18 07:09:56;;;;;;;8.63;3.03;;;;;;;21.07;46.87;101780.16;6026547;28;20034;-65
2022/07/18 07:12:51;;;;;;;11.47;3.03;;;;;;;21.31;46.70;101769.03;6024205;28;20037;-66
2022/07/18 07:15:46;;;;;;;11.23;3.80;;;;;;;21.03;46.69;101760.81;6025205;28;20482;-64
2022/07/18 07:18:42;;;;;;;10.17;3.50;;;;;;;20.90;48.34;101752.53;6025875;28;20607;-65
2022/07/18 07:21:37;;;;;;;11.27;3.30;;;;;;;21.41;46.57;101766.06;6021808;28;20054;-66
2022/07/18 07:24:32;;;;;;;11.57;3.30;;;;;;;21.74;46.16;101751.03;6026460;28;20034;-64
2022/07/18 07:27:28;;;;;;;13.10;3.60;;;;;;;21.88;44.84;101756.38;6025841;28;20100;-66
2022/07/18 07:30:23;;;;;;;14.00;3.53;;;;;;;21.19;46.48;101757.94;6025100;28;22344;-66
2022/07/18 07:33:18;;;;;;;10.97;3.00;;;;;;;21.98;44.30;101741.72;6025605;28;20034;-66
2022/07/18 07:36:13;;;;;;;11.33;3.40;;;;;;;21.78;45.14;101757.69;6023160;28;20700;-67
2022/07/18 07:39:09;;;;;;;8.03;3.10;;;;;;;21.89;45.63;101741.00;6025593;28;20088;-66
2022/07/18 07:42:04;;;;;;;11.23;3.10;;;;;;;21.69;45.02;101754.28;6024733;28;20031;-66
2022/07/18 07:44:59;;;;;;;8.70;3.23;;;;;;;21.78;45.14;101753.16;6026175;28;20274;-65
2022/07/18 07:47:55;;;;;;;5.67;2.40;;;;;;;22.45;43.78;101748.09;6025246;28;20089;-65
2022/07/18 07:50:50;;;;;;;12.20;3.00;;;;;;;22.88;42.86;101756.06;6024090;28;20066;-66
2022/07/18 07:53:46;;;;;;;7.32;2.60;;;;;;;22.80;42.58;101748.94;6017554;28;20034;-66
2022/07/18 07:56:41;;;;;;;9.87;2.37;;;;;;;23.70;40.20;101745.91;6024921;28;20045;-64
2022/07/18 07:59:36;;;;;;;10.77;2.27;;;;;;;23.27;40.33;101753.50;6025717;28;20034;-66
2022/07/18 08:02:32;;;;;;;6.93;2.10;;;;;;;23.63;40.59;101755.91;6024422;28;20115;-66
2022/07/18 08:05:29;;;;;;;11.73;2.93;;;;;;;23.51;39.14;101746.72;6021467;28;20034;-65
2022/07/18 08:08:25;;;;;;;8.85;2.67;;;;;;;23.47;40.05;101740.88;6025143;28;20034;-65
2022/07/18 08:11:20;;;;;;;7.45;2.60;;;;;;;24.40;38.33;101726.31;6019072;28;20026;-67
2022/07/18 08:14:15;;;;;;;9.27;2.10;;;;;;;24.36;37.82;101733.19;6023643;28;20445;-65
2022/07/18 08:17:11;;;;;;;5.82;2.30;;;;;;;24.25;36.67;101723.00;6025477;28;20072;-66
2022/07/18 08:20:07;;;;;;;11.33;2.73;;;;;;;24.93;35.99;101726.16;6022748;28;20158;-65
2022/07/18 08:23:04;;;;;;;6.60;2.47;;;;;;;24.77;35.39;101728.28;6025119;28;20038;-66
2022/07/18 08:25:59;;;;;;;12.63;2.47;;;;;;;24.35;36.33;101726.09;6024626;28;20051;-67
2022/07/18 08:28:55;;;;;;;8.90;2.30;;;;;;;24.73;35.15;101723.53;6025435;28;20117;-66
2022/07/18 08:31:50;;;;;;;7.70;2.07;;;;;;;25.24;34.63;101729.78;6023179;28;20057;-65
2022/07/18 08:34:45;;;;;;;2.77;1.37;;;;;;;25.69;32.33;101727.00;6024518;28;20501;-65
2022/07/18 08:37:40;;;;;;;4.60;1.33;;;;;;;25.79;32.79;101736.31;6029255;28;20026;-65
2022/07/18 08:40:37;;;;;;;4.70;1.40;;;;;;;25.28;32.33;101733.72;6025339;28;20041;-65
2022/07/18 08:43:33;;;;;;;5.10;1.50;;;;;;;25.09;33.50;101723.78;6030032;28;20035;-65
2022/07/18 08:46:29;;;;;;;5.25;1.25;;;;;;;25.02;33.08;101720.28;6022085;28;20041;-65
2022/07/18 08:49:24;;;;;;;3.47;1.30;;;;;;;25.09;33.64;101725.66;6024108;28;20097;-65
2022/07/18 08:52:20;;;;;;;5.35;1.60;;;;;;;25.11;32.45;101731.75;6017149;28;20489;-65
2022/07/18 08:55:15;;;;;;;5.05;1.45;;;;;;;25.34;32.54;101716.56;6028330;28;20164;-64
2022/07/18 08:58:12;;;;;;;8.02;1.60;;;;;;;25.47;32.59;101723.81;6019195;28;20030;-64
2022/07/18 09:01:07;;;;;;;5.03;1.40;;;;;;;25.92;33.06;101713.66;6027516;28;20554;-64
2022/07/18 09:04:14;;;;;;;3.22;1.20;;;;;;;25.67;31.96;101713.66;6029553;28;20034;-65
2022/07/18 09:07:23;;;;;;;4.78;1.42;;;;;;;25.63;31.47;101709.69;6028877;28;20636;-66
2022/07/18 09:10:18;;;;;;;3.63;1.50;;;;;;;26.02;31.86;101714.81;6016939;28;20047;-65
2022/07/18 09:13:13;;;;;;;2.77;1.27;;;;;;;26.41;30.87;101710.91;6027954;28;20249;-66
2022/07/18 09:16:11;;;;;;;6.90;2.05;;;;;;;25.91;30.18;101707.38;6028413;28;20037;-66
2022/07/18 09:19:06;;;;;;;5.28;1.40;;;;;;;26.18;30.75;101710.72;6029422;28;20113;-66
2022/07/18 09:22:40;;;;;;;4.43;1.63;;;;;;;26.17;30.99;101719.09;6024232;28;20375;-65
2022/07/18 09:25:36;;;;;;;3.97;1.55;;;;;;;26.30;30.07;101708.94;6020268;28;20169;-65
2022/07/18 09:28:49;;;;;;;4.45;1.73;;;;;;;26.44;29.67;101715.06;6024934;28;20062;-64
2022/07/18 09:31:51;;;;;;;4.88;1.70;;;;;;;27.08;28.29;101704.44;6026046;28;20034;-66
2022/07/18 09:34:46;;;;;;;4.85;1.77;;;;;;;27.14;27.92;101703.53;6028107;28;20492;-65
2022/07/18 09:37:52;;;;;;;5.07;1.97;;;;;;;26.55;27.26;101708.88;6021648;28;20039;-66
2022/07/18 09:40:49;;;;;;;4.38;1.73;;;;;;;26.62;28.50;101709.63;6021835;28;20099;-63
2022/07/18 09:43:45;;;;;;;4.43;2.10;;;;;;;27.37;26.31;101718.31;6028643;28;20096;-64
2022/07/18 09:47:00;;;;;;;6.33;2.10;;;;;;;26.90;28.24;101715.38;6019066;28;20038;-64
2022/07/18 09:49:55;;;;;;;4.18;2.00;;;;;;;26.77;29.05;101688.25;6026893;28;20505;-64
2022/07/18 09:53:33;;;;;;;4.22;2.15;;;;;;;26.84;27.16;101699.94;6027216;28;20042;-64
2022/07/18 09:56:30;;;;;;;5.70;2.25;;;;;;;26.87;28.18;101677.72;6009661;28;20049;-66
2022/07/18 09:59:25;;;;;;;6.97;2.95;;;;;;;27.24;27.22;101673.00;6023745;28;20030;-64
2022/07/18 10:02:21;;;;;;;4.07;2.20;;;;;;;27.66;26.38;101669.22;6038878;28;20034;-63
2022/07/18 10:05:16;;;;;;;5.30;2.20;;;;;;;28.09;26.77;101677.09;6026878;28;20038;-64
2022/07/18 10:08:15;;;;;;;4.37;1.80;;;;;;;28.52;26.27;101668.47;6042448;28;20038;-64
2022/07/18 10:11:10;;;;;;;4.88;1.88;;;;;;;28.40;27.50;101672.31;6024071;28;20320;-67
2022/07/18 10:14:06;;;;;;;4.20;2.10;;;;;;;28.72;26.97;101673.56;6015916;28;20113;-66
2022/07/18 10:17:01;;;;;;;5.43;1.67;;;;;;;27.58;27.14;101657.81;6020812;28;20043;-65
2022/07/18 10:20:05;;;;;;;5.40;2.20;;;;;;;27.96;27.49;101662.81;6027934;28;20023;-65
2022/07/18 10:23:07;;;;;;;4.57;1.83;;;;;;;28.22;26.95;101646.81;6041947;28;20034;-65
2022/07/18 10:26:23;;;;;;;3.85;2.13;;;;;;;28.11;26.77;101653.13;6042274;28;20527;-64
2022/07/18 10:29:18;;;;;;;3.65;2.00;;;;;;;28.32;25.86;101644.31;6026862;28;20038;-66
2022/07/18 10:32:13;;;;;;;7.28;2.17;;;;;;;28.27;26.45;101652.38;6023770;28;20065;-65
2022/07/18 10:35:12;;;;;;;5.37;2.00;;;;;;;28.56;26.66;101649.72;6026609;28;20042;-65
2022/07/18 10:38:20;;;;;;;4.25;2.00;;;;;;;29.19;25.35;101650.41;6026761;28;20031;-65
2022/07/18 10:41:16;;;;;;;4.20;2.03;;;;;;;29.68;24.36;101648.00;6025886;28;20097;-65
2022/07/18 10:44:23;;;;;;;4.13;2.10;;;;;;;29.82;24.90;101646.59;6026729;28;20529;-64
2022/07/18 10:47:23;;;;;;;5.07;2.20;;;;;;;29.15;25.54;101649.25;6014090;28;20114;-67
2022/07/18 10:50:18;;;;;;;3.58;1.95;;;;;;;29.35;25.41;101648.84;6026707;28;20066;-65
2022/07/18 10:53:14;;;;;;;4.50;2.17;;;;;;;29.10;25.30;101640.97;6025787;28;20050;-66
2022/07/18 10:56:09;;;;;;;6.37;2.17;;;;;;;29.32;24.45;101652.91;6025177;28;20034;-66
2022/07/18 10:59:16;;;;;;;3.70;2.30;;;;;;;29.93;25.24;101634.72;6026325;28;20053;-65
2022/07/18 11:02:11;;;;;;;4.72;2.35;;;;;;;29.62;24.80;101627.97;6025325;28;20037;-65
2022/07/18 11:05:25;;;;;;;4.05;2.10;;;;;;;29.08;25.18;101626.72;6039071;28;20497;-65
2022/07/18 11:08:24;;;;;;;5.57;2.40;;;;;;;29.15;25.54;101613.75;6019520;28;20042;-65
2022/07/18 11:11:19;;;;;;;6.60;2.22;;;;;;;29.92;24.70;101601.06;6015054;28;20030;-64
2022/07/18 11:14:53;;;;;;;6.93;2.40;;;;;;;29.50;24.52;101617.09;6021036;28;20045;-66
2022/07/18 11:17:51;;;;;;;5.22;2.28;;;;;;;29.13;25.69;101610.44;6017851;28;20406;-65
2022/07/18 11:20:46;;;;;;;4.05;2.00;;;;;;;29.39;24.81;101596.13;6023985;28;20026;-64
2022/07/18 11:23:42;;;;;;;4.53;2.25;;;;;;;30.12;23.99;101595.03;6022288;28;20041;-65
2022/07/18 11:26:47;;;;;;;5.47;1.98;;;;;;;30.35;23.57;101589.34;6023471;28;20128;-64
2022/07/18 11:29:42;;;;;;;5.50;2.30;;;;;;;29.64;25.25;101586.69;6024941;28;20030;-65
2022/07/18 11:32:38;;;;;;;3.97;2.20;;;;;;;29.50;24.82;101581.56;6025197;28;20042;-65
2022/07/18 11:35:33;;;;;;;5.73;2.33;;;;;;;29.40;24.63;101575.09;6010210;28;20066;-64
2022/07/18 11:38:28;;;;;;;4.47;2.20;;;;;;;29.94;24.35;101571.56;6012506;28;20030;-67
2022/07/18 11:41:25;;;;;;;3.80;2.10;;;;;;;30.14;23.70;101564.69;6024701;28;20277;-64
2022/07/18 11:44:26;;;;;;;3.38;1.80;;;;;;;30.46;24.12;101569.25;6024701;28;20080;-65
2022/07/18 11:47:22;;;;;;;3.80;2.13;;;;;;;31.13;22.75;101557.84;6025393;28;20034;-64
2022/07/18 11:50:26;;;;;;;4.50;2.28;;;;;;;30.59;23.98;101562.53;6024358;28;20560;-64
2022/07/18 11:53:22;;;;;;;3.38;1.80;;;;;;;30.75;23.89;101558.84;6014024;28;20034;-65
2022/07/18 11:56:19;;;;;;;4.47;1.83;;;;;;;31.21;23.05;101557.38;6019902;28;20054;-66
2022/07/18 11:59:15;;;;;;;3.72;2.20;;;;;;;30.87;23.29;101559.53;6021134;28;20042;-66
2022/07/18 12:02:11;;;;;;;3.50;1.95;;;;;;;31.09;23.34;101548.50;6024592;28;20042;-66
2022/07/18 12:05:07;;;;;;;3.97;1.83;;;;;;;31.22;23.98;101559.03;6023920;28;20402;-67
2022/07/18 12:08:29;;;;;;;4.30;1.80;;;;;;;30.94;23.71;101564.81;6024805;28;20030;-67
2022/07/18 12:11:47;;;;;;;5.68;1.80;;;;;;;30.77;22.79;101553.09;6019453;28;20054;-67
2022/07/18 12:14:42;;;;;;;7.38;2.10;;;;;;;31.40;22.70;101547.66;6015033;28;20092;-66
2022/07/18 12:17:45;;;;;;;4.87;2.23;;;;;;;31.85;22.85;101552.63;6038581;28;20038;-67
2022/07/18 12:20:41;;;;;;;4.05;2.00;;;;;;;31.96;22.16;101551.59;6024685;28;20257;-67
2022/07/18 12:23:36;;;;;;;3.17;2.17;;;;;;;32.29;22.61;101542.94;6018225;28;20121;-68
2022/07/18 12:26:32;;;;;;;4.53;1.92;;;;;;;32.45;21.96;101527.34;6025073;28;20042;-66
2022/07/18 12:29:27;;;;;;;3.20;1.90;;;;;;;31.24;21.66;101534.91;6024399;28;20034;-66
2022/07/18 12:32:24;;;;;;;3.10;1.67;;;;;;;31.35;22.49;101533.06;6038829;28;20476;-65
2022/07/18 12:35:21;;;;;;;6.60;2.05;;;;;;;31.44;21.96;101532.34;6016841;28;20128;-67
2022/07/18 12:38:17;;;;;;;7.68;2.38;;;;;;;31.56;22.14;101541.19;6019545;28;20501;-66
2022/07/18 12:41:13;;;;;;;5.03;2.10;;;;;;;31.00;21.95;101536.38;6017200;28;20057;-66
2022/07/18 12:44:13;;;;;;;3.73;2.10;;;;;;;31.93;23.69;101523.84;6024925;28;20038;-67
2022/07/18 12:47:09;;;;;;;3.45;2.00;;;;;;;32.04;20.65;101531.88;6018892;28;20278;-67
2022/07/18 12:50:05;;;;;;;5.47;2.03;;;;;;;32.40;20.93;101525.41;6023941;28;20022;-67
2022/07/18 12:53:01;;;;;;;4.38;2.20;;;;;;;32.95;20.46;101521.94;6023721;28;20094;-65
2022/07/18 12:55:56;;;;;;;3.90;1.80;;;;;;;33.28;20.12;101522.50;6021983;28;20035;-64
2022/07/18 12:58:51;;;;;;;3.10;1.90;;;;;;;33.38;19.54;101508.72;6022973;28;20289;-65
2022/07/18 13:01:47;;;;;;;5.13;2.30;;;;;;;32.70;19.97;101512.84;6023076;28;20038;-64
2022/07/18 13:04:42;;;;;;;4.60;2.13;;;;;;;31.80;21.54;101509.50;6023970;28;20045;-64
2022/07/18 13:07:38;;;;;;;5.10;2.35;;;;;;;31.93;21.23;101515.59;6024683;28;20305;-65
2022/07/18 13:10:34;;;;;;;3.80;2.20;;;;;;;32.26;21.03;101501.50;6023467;28;20042;-65
2022/07/18 13:13:29;;;;;;;4.60;1.90;;;;;;;32.17;20.95;101503.09;6022908;28;20278;-64
2022/07/18 13:16:24;;;;;;;4.18;2.00;;;;;;;31.83;22.89;101490.88;6023421;28;20023;-65
2022/07/18 13:19:20;;;;;;;5.93;1.87;;;;;;;31.65;22.14;101494.88;6024852;28;20037;-67
2022/07/18 13:22:16;;;;;;;5.05;2.35;;;;;;;31.67;21.68;101493.53;6024699;28;20092;-65
2022/07/18 13:25:11;;;;;;;3.67;1.98;;;;;;;31.88;21.10;101477.16;6028062;28;20109;-65
2022/07/18 13:28:06;;;;;;;3.70;1.92;;;;;;;31.71;22.10;101475.47;6022440;28;20478;-66
2022/07/18 13:31:02;;;;;;;3.70;2.00;;;;;;;31.37;22.46;101471.38;6024620;28;20085;-66
2022/07/18 13:33:58;;;;;;;5.47;2.33;;;;;;;30.90;22.02;101475.97;6022273;28;20108;-65
2022/07/18 13:36:53;;;;;;;4.97;2.08;;;;;;;30.98;21.51;101467.31;6025019;28;20174;-65
2022/07/18 13:39:49;;;;;;;3.37;1.80;;;;;;;31.13;21.38;101470.13;6024782;28;20053;-65
2022/07/18 13:42:44;;;;;;;2.90;1.65;;;;;;;31.47;22.48;101460.53;6024057;28;20688;-65
2022/07/18 13:45:39;;;;;;;2.88;1.90;;;;;;;32.55;20.90;101461.47;6023504;28;20041;-65